Time;durP1;ratioP1;P1;durP2;ratioP2;P2;SDS_P1;SDS_P2;PMS_P1;PMS_P2;Temp;Humidity;BMP_temperature;BMP_pressure;BME280_temperature;BME280_humidity;BME280_pressure;Samples;Min_cycle;Max_cycle;Signal;HPM_P1;HPM_P2
2023/06/27 00:02:02;;;;;;;7.72;4.63;;;;;;;17.07;100.00;63765.41;5089502;28;20547;-77
2023/06/27 00:04:29;;;;;;;5.35;4.95;;;;;;;17.05;100.00;63760.75;5085138;28;20204;-78
2023/06/27 00:06:56;;;;;;;5.60;4.97;;;;;;;17.11;100.00;63772.16;5070279;28;20224;-76
2023/06/27 00:09:23;;;;;;;7.60;5.07;;;;;;;17.07;100.00;63767.97;5074543;28;20215;-75
2023/06/27 00:11:52;;;;;;;6.22;4.90;;;;;;;17.05;100.00;63767.97;5067967;28;20221;-76
2023/06/27 00:14:20;;;;;;;6.25;5.03;;;;;;;17.05;100.00;63765.38;5067374;28;20196;-76
2023/06/27 00:16:47;;;;;;;6.50;4.90;;;;;;;17.01;100.00;63756.59;5068862;28;20219;-75
2023/06/27 00:19:14;;;;;;;6.40;5.05;;;;;;;17.05;100.00;63762.81;5076216;28;20208;-76
2023/06/27 00:21:40;;;;;;;5.75;4.18;;;;;;;17.00;100.00;63762.75;5069253;28;20236;-75
2023/06/27 00:24:07;;;;;;;5.53;5.00;;;;;;;16.99;100.00;63759.66;5075015;28;20505;-76
2023/06/27 00:26:35;;;;;;;7.88;5.25;;;;;;;16.99;100.00;63756.56;5072168;28;20220;-76
2023/06/27 00:29:03;;;;;;;5.90;5.40;;;;;;;16.87;100.00;63746.63;5073959;28;20235;-76
2023/06/27 00:31:30;;;;;;;5.50;5.00;;;;;;;16.94;100.00;63748.78;5080615;28;20258;-75
2023/06/27 00:33:57;;;;;;;5.03;4.65;;;;;;;16.91;100.00;63748.75;5077598;28;20253;-77
2023/06/27 00:36:24;;;;;;;10.70;5.28;;;;;;;16.93;100.00;63753.41;5076297;28;20220;-77
2023/06/27 00:38:51;;;;;;;5.53;4.95;;;;;;;16.94;100.00;63751.34;5069389;28;20277;-76
2023/06/27 00:41:18;;;;;;;7.75;5.25;;;;;;;16.88;100.00;63750.78;5075118;28;20247;-76
2023/06/27 00:43:46;;;;;;;4.78;4.47;;;;;;;16.83;100.00;63743.00;5085230;28;20208;-76
2023/06/27 00:46:24;;;;;;;5.18;4.78;;;;;;;16.83;100.00;63739.91;5066329;28;20213;-76
2023/06/27 00:48:52;;;;;;;5.13;4.70;;;;;;;16.79;100.00;63738.81;5066668;28;20262;-77
2023/06/27 00:51:19;;;;;;;5.43;4.93;;;;;;;16.83;100.00;63740.44;5080544;28;20255;-76
2023/06/27 00:53:46;;;;;;;5.88;4.93;;;;;;;16.85;100.00;63739.41;5077108;28;20196;-77
2023/06/27 00:56:13;;;;;;;5.43;4.82;;;;;;;16.87;100.00;63744.59;5066860;28;20221;-76
2023/06/27 00:58:41;;;;;;;4.40;4.10;;;;;;;16.81;100.00;63740.38;5073509;28;20196;-77
2023/06/27 01:01:09;;;;;;;4.38;4.07;;;;;;;16.82;100.00;63739.41;5085533;28;20235;-76
2023/06/27 01:03:38;;;;;;;6.13;4.97;;;;;;;16.78;100.00;63735.22;5066194;28;20209;-77
2023/06/27 01:06:12;;;;;;;4.70;4.38;;;;;;;16.76;100.00;63733.13;5066866;28;20225;-75
2023/06/27 01:08:43;;;;;;;6.22;5.40;;;;;;;16.73;100.00;63732.59;5065988;28;20516;-77
2023/06/27 01:11:16;;;;;;;5.13;4.72;;;;;;;16.71;100.00;63729.97;5065483;28;20230;-76
2023/06/27 01:13:49;;;;;;;4.68;4.28;;;;;;;16.70;100.00;63729.47;5070153;28;20221;-76
2023/06/27 01:16:18;;;;;;;5.05;4.65;;;;;;;16.67;100.00;63723.78;5069596;28;20221;-76
2023/06/27 01:18:48;;;;;;;5.47;4.97;;;;;;;16.72;100.00;63731.03;5069237;28;20235;-76
2023/06/27 01:21:17;;;;;;;4.57;4.18;;;;;;;16.71;100.00;63727.41;5065313;28;20224;-76
2023/06/27 01:23:52;;;;;;;4.65;4.25;;;;;;;16.71;100.00;63727.94;5069705;28;20201;-75
2023/06/27 01:26:19;;;;;;;4.95;3.90;;;;;;;16.69;100.00;63725.31;5067661;28;20265;-76
2023/06/27 01:28:46;;;;;;;8.02;4.82;;;;;;;16.73;100.00;63730.03;5066307;28;20252;-76
2023/06/27 01:31:21;;;;;;;4.57;4.18;;;;;;;16.71;100.00;63724.84;5066765;28;20448;-77
2023/06/27 01:34:01;;;;;;;3.90;3.67;;;;;;;16.68;100.00;63729.44;5068796;28;20208;-76
2023/06/27 01:36:35;;;;;;;4.55;4.15;;;;;;;16.65;100.00;63719.13;5072161;28;20296;-76
2023/06/27 01:39:07;;;;;;;5.50;4.65;;;;;;;16.59;100.00;63718.03;5079932;28;20481;-77
2023/06/27 01:41:38;;;;;;;5.18;4.72;;;;;;;16.59;100.00;63714.94;5076819;28;20248;-75
2023/06/27 01:44:06;;;;;;;6.30;4.63;;;;;;;16.48;100.00;63703.50;5077723;28;20203;-75
2023/06/27 01:46:34;;;;;;;4.97;4.57;;;;;;;16.48;100.00;63700.94;5081706;28;20224;-76
2023/06/27 01:49:04;;;;;;;4.55;4.25;;;;;;;16.37;100.00;63692.53;5083029;28;20193;-75
2023/06/27 01:51:32;;;;;;;6.22;4.80;;;;;;;16.39;100.00;63694.09;5069338;28;20266;-76
2023/06/27 01:53:59;;;;;;;6.25;5.15;;;;;;;16.32;100.00;63684.78;5085075;28;20263;-78
2023/06/27 01:56:28;;;;;;;12.68;5.00;;;;;;;16.28;100.00;63680.59;5081327;28;20228;-77
2023/06/27 01:58:55;;;;;;;4.75;4.32;;;;;;;16.26;100.00;63683.16;5076370;28;20227;-76
2023/06/27 02:01:22;;;;;;;4.78;4.38;;;;;;;16.23;100.00;63677.47;5065628;28;20270;-77
2023/06/27 02:03:49;;;;;;;4.88;4.47;;;;;;;16.23;100.00;63680.56;5072208;28;20200;-76
2023/06/27 02:06:17;;;;;;;5.10;4.70;;;;;;;16.17;100.00;63669.16;5078965;28;20223;-76
2023/06/27 02:08:44;;;;;;;10.43;4.80;;;;;;;16.17;100.00;63674.31;5070036;28;20512;-75
2023/06/27 02:11:12;;;;;;;5.93;4.65;;;;;;;16.14;100.00;63666.56;5069362;28;20223;-75
2023/06/27 02:13:40;;;;;;;5.85;4.72;;;;;;;16.16;100.00;63668.66;5065664;28;20204;-77
2023/06/27 02:16:07;;;;;;;5.18;4.78;;;;;;;16.12;100.00;63664.50;5081689;28;20219;-76
2023/06/27 02:18:34;;;;;;;5.95;5.53;;;;;;;16.13;100.00;63665.53;5075706;28;20196;-76
2023/06/27 02:21:00;;;;;;;4.70;4.30;;;;;;;16.09;100.00;63660.84;5070653;28;20229;-75
2023/06/27 02:23:28;;;;;;;4.85;4.55;;;;;;;16.12;100.00;63669.09;5070996;28;20201;-77
2023/06/27 02:25:56;;;;;;;5.07;4.47;;;;;;;16.07;100.00;63658.75;5069458;28;20392;-76
2023/06/27 02:28:23;;;;;;;6.10;5.50;;;;;;;16.06;100.00;63662.88;5085554;28;20242;-77
2023/06/27 02:30:52;;;;;;;6.90;4.93;;;;;;;16.11;100.00;63665.50;5079423;28;20228;-76
2023/06/27 02:33:19;;;;;;;5.80;5.22;;;;;;;16.10;100.00;63667.03;5069008;28;20258;-77
2023/06/27 02:35:46;;;;;;;5.40;4.90;;;;;;;16.13;100.00;63670.16;5073937;28;20232;-77
2023/06/27 02:38:13;;;;;;;4.93;4.53;;;;;;;16.16;100.00;63675.84;5074691;28;20204;-77
2023/06/27 02:40:40;;;;;;;10.02;5.28;;;;;;;16.17;100.00;63672.25;5064327;28;20244;-77
2023/06/27 02:43:08;;;;;;;5.47;4.97;;;;;;;16.15;100.00;63672.25;5067390;28;20204;-76
2023/06/27 02:45:35;;;;;;;5.65;5.15;;;;;;;16.23;100.00;63677.97;5064749;28;20235;-77
2023/06/27 02:48:05;;;;;;;5.07;4.57;;;;;;;16.30;100.00;63682.16;5063341;28;20204;-77
2023/06/27 02:50:31;;;;;;;5.72;5.10;;;;;;;16.29;100.00;63676.00;5063804;28;20225;-76
2023/06/27 02:52:58;;;;;;;5.15;4.65;;;;;;;16.24;100.00;63676.44;5081659;28;20200;-77
2023/06/27 02:55:25;;;;;;;7.10;5.18;;;;;;;16.24;100.00;63681.06;5069002;28;20243;-76
2023/06/27 02:57:52;;;;;;;6.15;5.55;;;;;;;16.30;100.00;63684.75;5064244;28;20217;-77
2023/06/27 03:00:20;;;;;;;6.40;5.70;;;;;;;16.27;100.00;63684.19;5077573;28;20200;-77
2023/06/27 03:02:46;;;;;;;6.30;5.57;;;;;;;16.30;100.00;63680.13;5084028;28;20258;-75
2023/06/27 03:05:15;;;;;;;7.38;5.53;;;;;;;16.35;100.00;63693.03;5083612;28;20196;-76
2023/06/27 03:07:41;;;;;;;5.78;5.18;;;;;;;16.34;100.00;63686.88;5075844;28;20200;-77
2023/06/27 03:10:09;;;;;;;6.18;5.65;;;;;;;16.37;100.00;63692.03;5069947;28;20200;-75
2023/06/27 03:12:36;;;;;;;6.28;4.90;;;;;;;16.40;100.00;63695.13;5066814;28;20268;-76
2023/06/27 03:15:03;;;;;;;6.40;5.18;;;;;;;16.44;100.00;63696.72;5077426;28;20246;-76
2023/06/27 03:17:31;;;;;;;6.22;5.63;;;;;;;16.50;100.00;63708.66;5070458;28;20259;-76
2023/06/27 03:19:58;;;;;;;9.63;5.22;;;;;;;16.55;100.00;63710.78;5063653;28;20224;-76
2023/06/27 03:22:27;;;;;;;7.63;5.00;;;;;;;16.60;100.00;63713.91;5064998;28;20266;-76
2023/06/27 03:24:53;;;;;;;9.07;4.95;;;;;;;16.69;100.00;63720.72;5083191;28;20205;-76
2023/06/27 03:27:22;;;;;;;6.18;4.60;;;;;;;16.74;100.00;63727.97;5071651;28;20626;-76
2023/06/27 03:29:49;;;;;;;6.63;5.32;;;;;;;16.80;100.00;63739.34;5071460;28;20208;-75
2023/06/27 03:32:16;;;;;;;5.57;5.07;;;;;;;16.86;100.00;63743.53;5069102;28;20221;-77
2023/06/27 03:34:43;;;;;;;5.57;5.05;;;;;;;16.90;100.00;63744.63;5068613;28;20251;-76
2023/06/27 03:37:10;;;;;;;5.40;4.90;;;;;;;17.01;100.00;63758.66;5069788;28;20224;-76
2023/06/27 03:39:39;;;;;;;5.97;5.43;;;;;;;17.04;100.00;63759.19;5071381;28;20204;-76
2023/06/27 03:42:07;;;;;;;5.53;4.78;;;;;;;17.16;100.00;63777.34;5083346;28;20544;-77
2023/06/27 03:44:34;;;;;;;6.72;4.80;;;;;;;17.27;100.00;63788.78;5080201;28;20221;-75
2023/06/27 03:47:01;;;;;;;5.60;5.07;;;;;;;17.28;100.00;63792.41;5077648;28;20231;-75
2023/06/27 03:49:28;;;;;;;9.38;5.43;;;;;;;17.43;100.00;63807.50;5078442;28;20209;-75
2023/06/27 03:51:56;;;;;;;5.22;4.72;;;;;;;17.56;100.00;63815.91;5080772;28;20235;-76
2023/06/27 03:54:23;;;;;;;4.68;4.28;;;;;;;17.59;100.00;63821.63;5076796;28;20208;-76
2023/06/27 03:56:51;;;;;;;5.40;4.93;;;;;;;17.62;100.00;63824.22;5067521;28;20224;-77
2023/06/27 03:59:18;;;;;;;4.97;4.57;;;;;;;17.73;100.00;63830.53;5079396;28;20199;-76
2023/06/27 04:01:45;;;;;;;5.22;4.82;;;;;;;17.85;100.00;63845.59;5072637;28;20224;-76
2023/06/27 04:04:13;;;;;;;6.10;4.78;;;;;;;17.91;100.00;63851.84;5082735;28;20224;-78
2023/06/27 04:06:39;;;;;;;5.80;5.25;;;;;;;17.99;100.00;63865.88;5081524;28;20228;-76
2023/06/27 04:09:07;;;;;;;5.72;5.10;;;;;;;18.05;100.00;63869.53;5074928;28;20748;-75
2023/06/27 04:11:35;;;;;;;5.40;4.90;;;;;;;18.06;100.00;63868.00;5073999;28;20287;-75
2023/06/27 04:14:03;;;;;;;6.72;4.88;;;;;;;18.15;100.00;63879.94;5069317;28;20201;-75
2023/06/27 04:16:31;;;;;;;6.18;5.43;;;;;;;18.26;100.00;63886.25;5067310;28;20217;-76
2023/06/27 04:18:59;;;;;;;6.30;5.70;;;;;;;18.39;100.00;63904.97;5069761;28;20235;-77
2023/06/27 04:21:26;;;;;;;5.55;4.60;;;;;;;18.42;100.00;63902.94;5073405;28;20217;-76
2023/06/27 04:23:54;;;;;;;5.70;4.97;;;;;;;18.32;100.00;63899.72;5067066;28;20208;-76
2023/06/27 04:26:21;;;;;;;5.57;5.15;;;;;;;18.19;100.00;63881.53;5073666;28;20215;-75
2023/06/27 04:28:48;;;;;;;5.97;5.25;;;;;;;18.16;100.00;63880.47;5067661;28;20279;-75
2023/06/27 04:31:25;;;;;;;6.13;5.63;;;;;;;18.19;100.00;63881.00;5093630;28;20224;-75
2023/06/27 04:33:55;;;;;;;7.93;5.28;;;;;;;18.16;100.00;63875.84;5080362;28;20204;-75
2023/06/27 04:36:25;;;;;;;5.50;5.05;;;;;;;18.15;100.00;63879.94;5073965;28;20224;-76
2023/06/27 04:38:52;;;;;;;10.23;5.55;;;;;;;18.19;100.00;63881.00;5068107;28;20214;-76
2023/06/27 04:41:19;;;;;;;9.85;5.85;;;;;;;18.22;100.00;63881.56;5069199;28;20221;-76
2023/06/27 04:43:46;;;;;;;7.60;6.45;;;;;;;18.24;100.00;63884.16;5083290;28;20276;-77
2023/06/27 04:46:13;;;;;;;10.52;6.18;;;;;;;18.29;100.00;63891.94;5071848;28;20382;-76
2023/06/27 04:48:42;;;;;;;7.13;6.00;;;;;;;18.36;100.00;63896.66;5067309;28;20209;-75
2023/06/27 04:51:09;;;;;;;10.02;6.45;;;;;;;18.43;100.00;63903.97;5071050;28;20240;-76
2023/06/27 04:53:36;;;;;;;7.90;5.90;;;;;;;18.50;100.00;63912.81;5069586;28;20275;-75
2023/06/27 04:56:03;;;;;;;6.35;5.75;;;;;;;18.57;100.00;63922.69;5076219;28;20223;-75
2023/06/27 04:58:30;;;;;;;6.40;5.80;;;;;;;18.67;100.00;63936.22;5085296;28;20192;-76
2023/06/27 05:00:57;;;;;;;6.75;6.15;;;;;;;18.78;100.00;63944.56;5065740;28;20236;-75
2023/06/27 05:03:24;;;;;;;8.38;6.28;;;;;;;18.79;100.00;63946.16;5079978;28;20236;-76
2023/06/27 05:05:52;;;;;;;6.63;6.03;;;;;;;18.84;100.00;63950.84;5066657;28;20235;-76
2023/06/27 05:08:19;;;;;;;7.80;7.00;;;;;;;19.03;100.00;63970.66;5069493;28;20431;-75
2023/06/27 05:10:46;;;;;;;9.40;6.63;;;;;;;19.03;100.00;63965.47;5081279;28;20224;-75
2023/06/27 05:13:14;;;;;;;8.55;6.00;;;;;;;19.00;100.00;63968.03;5069430;28;20205;-75
2023/06/27 05:15:41;;;;;;;8.32;6.00;;;;;;;18.97;100.00;63956.63;5066569;28;20426;-76
2023/06/27 05:18:24;;;;;;;9.27;6.63;;;;;;;18.95;100.00;63957.13;5074151;28;20200;-76
2023/06/27 05:20:52;;;;;;;7.10;6.40;;;;;;;19.07;100.00;63967.06;5065700;28;20251;-77
2023/06/27 05:23:20;;;;;;;7.18;6.47;;;;;;;19.14;100.00;63974.34;5066192;28;20244;-75
2023/06/27 05:25:48;;;;;;;8.90;7.05;;;;;;;19.30;100.00;63996.75;5066969;28;20224;-76
2023/06/27 05:28:16;;;;;;;7.50;6.80;;;;;;;19.39;100.00;64008.19;5070899;28;20205;-76
2023/06/27 05:30:43;;;;;;;8.88;7.07;;;;;;;19.48;100.00;64015.00;5065289;28;20236;-76
2023/06/27 05:33:10;;;;;;;7.28;6.57;;;;;;;19.30;100.00;63994.19;5085038;28;20287;-75
2023/06/27 05:35:37;;;;;;;7.10;6.40;;;;;;;19.29;100.00;63998.25;5080550;28;20224;-76
2023/06/27 05:38:06;;;;;;;7.00;6.22;;;;;;;19.34;100.00;64003.53;5065910;28;20612;-77
2023/06/27 05:40:33;;;;;;;10.57;6.72;;;;;;;19.42;100.00;64006.16;5064927;28;20221;-77
2023/06/27 05:43:00;;;;;;;12.07;7.50;;;;;;;19.42;100.00;64017.03;5067038;28;20240;-75
2023/06/27 05:45:27;;;;;;;8.77;7.85;;;;;;;19.38;100.00;64002.50;5077292;28;20247;-76
2023/06/27 05:47:54;;;;;;;11.23;7.50;;;;;;;19.45;100.00;64014.97;5084218;28;20248;-76
2023/06/27 05:50:21;;;;;;;10.35;8.20;;;;;;;19.38;100.00;63999.41;5071915;28;20207;-75
2023/06/27 05:52:49;;;;;;;11.98;7.88;;;;;;;19.51;100.00;64013.50;5076129;28;20216;-76
2023/06/27 05:55:17;;;;;;;13.45;7.88;;;;;;;19.67;100.00;64034.81;5067641;28;20231;-75
2023/06/27 05:57:44;;;;;;;14.57;8.98;;;;;;;19.70;100.00;64037.94;5065439;28;20201;-77
2023/06/27 06:00:13;;;;;;;9.00;8.00;;;;;;;19.70;100.00;64037.44;5068084;28;20260;-75
2023/06/27 06:02:43;;;;;;;9.52;8.00;;;;;;;19.88;100.00;64051.56;5064769;28;20292;-75
2023/06/27 06:05:10;;;;;;;8.85;7.90;;;;;;;19.97;100.00;64068.16;5068369;28;20207;-76
2023/06/27 06:07:41;;;;;;;10.38;7.70;;;;;;;20.35;100.00;64100.63;5074355;28;20200;-76
2023/06/27 06:10:09;;;;;;;11.05;7.00;;;;;;;20.53;100.00;64124.59;5073970;28;20224;-77
2023/06/27 06:12:38;;;;;;;8.57;7.70;;;;;;;20.61;100.00;64129.81;5072194;28;20197;-77
2023/06/27 06:15:06;;;;;;;11.68;8.38;;;;;;;20.55;100.00;64126.66;5065695;28;20212;-76
2023/06/27 06:17:33;;;;;;;8.30;7.50;;;;;;;20.52;100.00;64120.41;5072991;28;20205;-77
2023/06/27 06:20:00;;;;;;;10.45;8.00;;;;;;;20.69;100.00;64135.59;5070567;28;20235;-77
2023/06/27 06:22:27;;;;;;;9.90;8.43;;;;;;;20.71;100.00;64142.84;5070999;28;20250;-78
2023/06/27 06:24:55;;;;;;;16.85;9.23;;;;;;;20.56;100.00;64127.19;5076280;28;20203;-78
2023/06/27 06:27:22;;;;;;;9.88;8.20;;;;;;;20.23;100.00;64093.28;5073857;28;20242;-76
2023/06/27 06:29:50;;;;;;;10.43;8.25;;;;;;;20.35;100.00;64105.78;5072075;28;20457;-79
2023/06/27 06:32:17;;;;;;;10.27;8.05;;;;;;;20.61;100.00;64132.94;5066092;28;20228;-77
2023/06/27 06:34:44;;;;;;;9.90;7.80;;;;;;;20.64;100.00;64135.53;5071107;28;20207;-78
2023/06/27 06:37:11;;;;;;;8.90;7.78;;;;;;;20.71;100.00;64140.25;5077060;28;20222;-76
2023/06/27 06:39:38;;;;;;;9.25;8.27;;;;;;;20.62;100.00;64128.78;5071186;28;20532;-77
2023/06/27 06:42:05;;;;;;;9.63;8.52;;;;;;;20.84;100.00;64150.72;5067904;28;20288;-77
2023/06/27 06:44:32;;;;;;;8.70;7.80;;;;;;;21.08;100.00;64183.56;5065565;28;20489;-75
2023/06/27 06:47:01;;;;;;;11.90;7.63;;;;;;;21.11;100.00;64187.22;5065516;28;20288;-77
2023/06/27 06:49:28;;;;;;;12.35;8.75;;;;;;;20.99;100.00;64169.50;5074135;28;20283;-75
2023/06/27 06:51:55;;;;;;;14.25;9.25;;;;;;;21.12;100.00;64187.75;5085497;28;20287;-76
2023/06/27 06:54:22;;;;;;;9.88;8.90;;;;;;;21.19;100.00;64195.56;5075586;28;20201;-76
2023/06/27 06:56:50;;;;;;;8.70;7.72;;;;;;;21.14;100.00;64190.34;5064513;28;20238;-76
2023/06/27 06:59:17;;;;;;;9.05;8.15;;;;;;;21.17;100.00;64192.97;5065142;28;20701;-78
2023/06/27 07:01:44;;;;;;;10.02;7.95;;;;;;;21.43;98.86;64214.94;5064762;28;20228;-76
2023/06/27 07:04:13;;;;;;;10.10;7.68;;;;;;;21.45;100.00;64214.94;5079498;28;20458;-76
2023/06/27 07:06:40;;;;;;;9.27;8.35;;;;;;;21.50;97.14;64224.84;5064720;28;20456;-76
2023/06/27 07:09:07;;;;;;;10.85;9.30;;;;;;;21.46;96.96;64223.25;5070043;28;20203;-75
2023/06/27 07:11:34;;;;;;;8.50;6.80;;;;;;;21.63;94.64;64236.34;5070850;28;20283;-76
2023/06/27 07:14:01;;;;;;;9.98;7.45;;;;;;;21.73;95.27;64243.69;5065968;28;20523;-76
2023/06/27 07:16:27;;;;;;;8.23;6.40;;;;;;;21.74;96.42;64253.03;5067558;28;20287;-75
2023/06/27 07:18:54;;;;;;;8.73;7.10;;;;;;;21.96;96.98;64272.41;5065067;28;20228;-77
2023/06/27 07:21:23;;;;;;;9.60;7.72;;;;;;;21.99;95.33;64272.94;5064747;28;20406;-77
2023/06/27 07:23:51;;;;;;;9.75;7.60;;;;;;;22.16;94.51;64291.22;5065636;28;20291;-76
2023/06/27 07:26:18;;;;;;;8.70;7.00;;;;;;;22.40;95.87;64321.00;5078966;28;20224;-75
2023/06/27 07:28:45;;;;;;;9.68;8.02;;;;;;;22.43;95.70;64319.47;5076364;28;20481;-75
2023/06/27 07:31:11;;;;;;;13.35;8.00;;;;;;;22.48;91.47;64324.69;5079897;28;20224;-77
2023/06/27 07:33:38;;;;;;;7.65;6.95;;;;;;;22.59;90.24;64335.69;5071807;28;20206;-76
2023/06/27 07:36:05;;;;;;;9.40;7.35;;;;;;;22.66;91.17;64348.19;5069277;28;20307;-76
2023/06/27 07:38:34;;;;;;;11.68;7.55;;;;;;;22.66;89.50;64340.38;5068582;28;20291;-76
2023/06/27 07:41:01;;;;;;;7.28;6.63;;;;;;;22.69;89.82;64351.84;5068588;28;20436;-75
2023/06/27 07:43:28;;;;;;;8.52;7.28;;;;;;;22.63;86.92;64342.44;5062912;28;20611;-78
2023/06/27 07:45:55;;;;;;;7.28;6.60;;;;;;;22.50;85.53;64328.84;5079210;28;20231;-75
2023/06/27 07:48:22;;;;;;;7.82;6.60;;;;;;;22.47;90.48;64325.69;5065758;28;20235;-75
2023/06/27 07:50:49;;;;;;;7.70;7.00;;;;;;;22.50;88.84;64329.34;5067896;28;20291;-75
2023/06/27 07:53:16;;;;;;;8.75;7.22;;;;;;;22.73;86.55;64352.91;5064159;28;20205;-75
2023/06/27 07:55:45;;;;;;;7.70;6.93;;;;;;;22.80;84.95;64360.75;5064445;28;20224;-76
2023/06/27 07:58:12;;;;;;;8.77;6.63;;;;;;;22.92;90.31;64372.25;5068337;28;20401;-75
2023/06/27 08:00:39;;;;;;;8.73;6.75;;;;;;;22.82;83.58;64360.25;5062098;28;20219;-78
2023/06/27 08:03:06;;;;;;;9.73;6.22;;;;;;;23.10;80.28;64391.06;5067672;28;20522;-76
2023/06/27 08:05:34;;;;;;;7.03;6.35;;;;;;;22.87;81.69;64365.47;5063961;28;20228;-76
2023/06/27 08:08:02;;;;;;;5.97;5.35;;;;;;;22.77;78.16;64357.09;5064732;28;20200;-75
2023/06/27 08:10:29;;;;;;;10.13;6.13;;;;;;;22.90;79.77;64371.22;5070505;28;20348;-76
2023/06/27 08:12:57;;;;;;;6.50;5.90;;;;;;;22.94;80.97;64377.47;5072570;28;20259;-75
2023/06/27 08:15:25;;;;;;;7.93;6.18;;;;;;;23.03;84.08;64381.16;5073495;28;20257;-77
2023/06/27 08:17:52;;;;;;;8.95;6.57;;;;;;;23.21;79.43;64405.19;5070278;28;20213;-76
2023/06/27 08:20:19;;;;;;;6.53;5.93;;;;;;;23.25;80.31;64411.97;5067351;28;20192;-75
2023/06/27 08:22:46;;;;;;;7.25;5.78;;;;;;;23.43;75.47;64423.56;5073933;28;20236;-76
2023/06/27 08:25:13;;;;;;;7.38;6.00;;;;;;;23.38;74.33;64420.91;5071745;28;20242;-74
2023/06/27 08:27:40;;;;;;;12.32;6.82;;;;;;;23.55;77.67;64441.31;5074562;28;20242;-75
2023/06/27 08:30:10;;;;;;;6.80;5.78;;;;;;;23.81;77.72;64467.97;5075067;28;20192;-74
2023/06/27 08:32:37;;;;;;;6.47;5.88;;;;;;;23.84;72.25;64473.72;5066213;28;20205;-75
2023/06/27 08:35:06;;;;;;;6.82;6.13;;;;;;;23.50;74.17;64432.94;5070611;28;20276;-75
2023/06/27 08:37:33;;;;;;;8.25;5.57;;;;;;;23.47;71.54;64429.81;5075551;28;20300;-75
2023/06/27 08:40:00;;;;;;;7.97;6.05;;;;;;;23.42;71.77;64427.69;5067105;28;20238;-75
2023/06/27 08:42:31;;;;;;;6.93;5.93;;;;;;;23.34;68.75;64416.19;5072392;28;20246;-75
2023/06/27 08:44:58;;;;;;;13.40;5.88;;;;;;;23.48;68.45;64433.97;5072252;28;20216;-74
2023/06/27 08:47:30;;;;;;;5.13;4.82;;;;;;;23.44;64.99;64427.19;5068390;28;20308;-77
2023/06/27 08:50:03;;;;;;;6.43;5.82;;;;;;;23.48;66.62;64431.38;5069099;28;20339;-75
2023/06/27 08:52:35;;;;;;;5.75;5.28;;;;;;;23.64;69.49;64445.50;5065150;28;20224;-76
2023/06/27 08:55:06;;;;;;;6.22;5.30;;;;;;;23.64;64.06;64447.59;5071922;28;20192;-74
2023/06/27 08:57:34;;;;;;;5.47;5.07;;;;;;;23.86;65.35;64468.53;5065068;28;20276;-76
2023/06/27 09:00:09;;;;;;;4.97;4.47;;;;;;;24.02;61.75;64487.91;5070064;28;20243;-75
2023/06/27 09:02:38;;;;;;;6.13;5.47;;;;;;;23.91;63.92;64475.84;5074376;28;20192;-74
2023/06/27 09:05:08;;;;;;;6.05;5.35;;;;;;;23.98;64.82;64483.16;5064393;28;20209;-75
2023/06/27 09:07:35;;;;;;;6.40;5.60;;;;;;;24.08;65.64;64493.13;5071201;28;20213;-77
2023/06/27 09:10:03;;;;;;;5.53;4.82;;;;;;;24.28;64.79;64508.88;5071142;28;20200;-76
2023/06/27 09:12:32;;;;;;;8.43;6.25;;;;;;;24.38;63.66;64527.66;5072201;28;20205;-74
2023/06/27 09:14:59;;;;;;;6.18;5.25;;;;;;;24.44;62.07;64531.34;5068815;28;20231;-75
2023/06/27 09:17:26;;;;;;;5.28;4.78;;;;;;;24.34;62.97;64522.94;5071720;28;20533;-75
2023/06/27 09:19:55;;;;;;;5.82;5.32;;;;;;;24.28;60.99;64514.06;5070839;28;20207;-75
2023/06/27 09:22:24;;;;;;;5.03;4.70;;;;;;;24.44;60.40;64525.59;5071337;28;20223;-75
2023/06/27 09:25:10;;;;;;;7.32;4.90;;;;;;;24.73;62.33;64564.31;5075150;28;20231;-77
2023/06/27 09:27:38;;;;;;;4.95;4.05;;;;;;;24.83;56.81;64571.69;5069957;28;20283;-76
2023/06/27 09:30:07;;;;;;;5.05;4.65;;;;;;;24.67;53.92;64555.44;5068129;28;20208;-75
2023/06/27 09:32:35;;;;;;;5.97;5.05;;;;;;;24.59;55.95;64543.94;5068532;28;20208;-74
2023/06/27 09:35:04;;;;;;;4.47;4.07;;;;;;;24.78;54.81;64563.84;5079899;28;20204;-75
2023/06/27 09:37:32;;;;;;;4.93;4.50;;;;;;;24.77;52.25;64557.56;5088445;28;20242;-75
2023/06/27 09:39:59;;;;;;;4.00;3.80;;;;;;;24.60;52.67;64544.97;5087628;28;20262;-76
2023/06/27 09:42:30;;;;;;;3.90;3.60;;;;;;;24.73;52.03;64564.31;5068350;28;20255;-76
2023/06/27 09:45:14;;;;;;;4.18;3.88;;;;;;;24.73;51.84;64563.81;5067426;28;20407;-75
2023/06/27 09:47:42;;;;;;;4.40;4.13;;;;;;;24.73;52.80;64561.72;5080762;28;20525;-75
2023/06/27 09:50:11;;;;;;;4.35;4.05;;;;;;;24.89;53.11;64577.94;5067874;28;20201;-76
2023/06/27 09:52:38;;;;;;;3.58;3.38;;;;;;;25.03;49.54;64592.63;5066059;28;20200;-76
2023/06/27 09:55:17;;;;;;;3.47;3.17;;;;;;;25.02;49.45;64594.19;5067373;28;20220;-76
2023/06/27 09:57:44;;;;;;;4.65;3.83;;;;;;;25.13;47.73;64603.09;5067146;28;20208;-76
2023/06/27 10:00:12;;;;;;;3.45;3.20;;;;;;;25.29;49.72;64619.34;5066757;28;20205;-77
2023/06/27 10:02:39;;;;;;;8.48;4.00;;;;;;;25.14;47.18;64606.75;5065801;28;20200;-74
2023/06/27 10:05:06;;;;;;;3.72;3.38;;;;;;;25.23;49.99;64613.56;5066729;28;20484;-75
2023/06/27 10:07:35;;;;;;;4.05;3.78;;;;;;;25.37;50.25;64625.66;5066270;28;20245;-76
2023/06/27 10:10:02;;;;;;;3.78;3.47;;;;;;;25.46;47.60;64642.91;5065683;28;20260;-76
2023/06/27 10:12:29;;;;;;;3.50;3.30;;;;;;;25.76;49.91;64669.13;5065622;28;20393;-77
2023/06/27 10:14:57;;;;;;;4.93;4.53;;;;;;;25.60;47.75;64652.34;5065873;28;20204;-75
2023/06/27 10:17:25;;;;;;;4.78;4.38;;;;;;;25.53;49.45;64647.09;5066363;28;20601;-77
2023/06/27 10:19:52;;;;;;;6.57;4.57;;;;;;;25.44;49.17;64638.19;5065858;28;20203;-75
2023/06/27 10:22:21;;;;;;;8.73;5.07;;;;;;;25.54;49.70;64642.94;5065946;28;20244;-75
2023/06/27 10:24:54;;;;;;;8.15;4.20;;;;;;;25.76;49.05;64666.53;5070420;28;20410;-76
2023/06/27 10:27:21;;;;;;;5.80;5.13;;;;;;;26.00;49.04;64693.75;5084233;28;20219;-75
2023/06/27 10:29:49;;;;;;;4.65;4.28;;;;;;;26.07;47.15;64701.66;5066662;28;20239;-75
2023/06/27 10:32:17;;;;;;;3.35;3.10;;;;;;;26.12;42.53;64706.34;5066003;28;20221;-76
2023/06/27 10:34:45;;;;;;;5.32;3.50;;;;;;;25.90;43.04;64683.28;5066216;28;20235;-76
2023/06/27 10:37:12;;;;;;;3.30;3.00;;;;;;;26.02;41.07;64695.84;5065853;28;20224;-74
2023/06/27 10:39:41;;;;;;;3.53;3.28;;;;;;;25.77;39.87;64667.03;5066651;28;20212;-74
2023/06/27 10:42:29;;;;;;;3.17;2.97;;;;;;;25.83;41.47;64679.09;5065584;28;20228;-77
2023/06/27 10:45:06;;;;;;;4.35;4.05;;;;;;;26.00;44.24;64696.38;5079833;28;20228;-75
2023/06/27 10:47:38;;;;;;;4.32;3.63;;;;;;;25.94;46.67;64687.47;5067321;28;20230;-75
2023/06/27 10:50:08;;;;;;;4.57;4.18;;;;;;;26.25;44.84;64716.84;5065793;28;20246;-75
2023/06/27 10:52:35;;;;;;;4.00;3.72;;;;;;;26.39;45.09;64734.66;5065649;28;20204;-76
2023/06/27 10:55:22;;;;;;;8.15;3.83;;;;;;;26.45;44.33;64745.66;5067605;28;20197;-76
2023/06/27 10:57:58;;;;;;;4.38;4.07;;;;;;;26.47;44.54;64743.06;5072576;28;20208;-76
2023/06/27 11:00:28;;;;;;;4.40;4.10;;;;;;;26.66;46.11;64762.97;5065358;28;20231;-77
2023/06/27 11:02:57;;;;;;;4.57;4.03;;;;;;;26.71;41.77;64765.63;5066219;28;20217;-75
2023/06/27 11:05:38;;;;;;;4.28;3.88;;;;;;;26.68;40.38;64765.09;5065728;28;20577;-75
2023/06/27 11:08:10;;;;;;;3.63;3.42;;;;;;;26.47;39.95;64745.13;5065247;28;20205;-74
2023/06/27 11:10:37;;;;;;;3.42;3.22;;;;;;;25.98;40.87;64689.03;5076970;28;20220;-75
2023/06/27 11:13:15;;;;;;;4.55;3.90;;;;;;;26.16;40.85;64713.16;5065322;28;20213;-76
2023/06/27 11:15:43;;;;;;;4.57;3.60;;;;;;;26.42;40.43;64732.06;5083590;28;20216;-78
2023/06/27 11:18:13;;;;;;;3.97;3.63;;;;;;;26.10;40.92;64702.19;5085284;28;20274;-77
2023/06/27 11:20:41;;;;;;;6.68;3.65;;;;;;;26.27;42.99;64722.06;5085735;28;20242;-75
2023/06/27 11:23:08;;;;;;;4.43;3.42;;;;;;;26.26;41.80;64720.50;5078860;28;20276;-74
2023/06/27 11:25:42;;;;;;;4.03;3.45;;;;;;;26.29;40.08;64726.25;5066237;28;20243;-75
2023/06/27 11:28:10;;;;;;;4.00;3.63;;;;;;;26.34;38.69;64732.03;5072855;28;20271;-76
2023/06/27 11:30:39;;;;;;;4.38;3.50;;;;;;;26.40;37.65;64735.72;5085151;28;20231;-76
2023/06/27 11:33:07;;;;;;;3.88;3.58;;;;;;;26.61;40.89;64755.09;5071735;28;20208;-77